createdAt,value
2018-10-18T00:00:58.219Z,1016.35
2018-10-18T00:01:58.223Z,1016.36
2018-10-18T00:02:58.154Z,1016.33
2018-10-18T00:03:58.122Z,1016.36
2018-10-18T00:04:58.131Z,1016.38
2018-10-18T00:05:58.450Z,1016.38
2018-10-18T00:06:58.031Z,1016.42
2018-10-18T00:07:58.915Z,1016.39
2018-10-18T00:08:58.881Z,1016.45
2018-10-18T00:09:57.991Z,1016.41
2018-10-18T00:10:57.954Z,1016.43
2018-10-18T00:11:57.881Z,1016.45
2018-10-18T00:12:58.375Z,1016.47
2018-10-18T00:13:57.824Z,1016.45
2018-10-18T00:14:58.381Z,1016.42
2018-10-18T00:15:57.930Z,1016.40
2018-10-18T00:16:57.726Z,1016.41
2018-10-18T00:17:57.732Z,1016.41
2018-10-18T00:18:58.387Z,1016.40
2018-10-18T00:19:57.719Z,1016.39
2018-10-18T00:20:57.650Z,1016.38
2018-10-18T00:21:58.380Z,1016.38
2018-10-18T00:22:58.385Z,1016.40
2018-10-18T00:23:58.391Z,1016.40
2018-10-18T00:24:57.480Z,1016.41
2018-10-18T00:25:57.518Z,1016.39
2018-10-18T00:26:57.468Z,1016.41
2018-10-18T00:27:57.392Z,1016.43
2018-10-18T00:28:57.879Z,1016.42
2018-10-18T00:29:57.922Z,1016.41
2018-10-18T00:30:57.432Z,1016.45
2018-10-18T00:31:57.450Z,1016.43
2018-10-18T00:32:57.919Z,1016.44
2018-10-18T00:33:57.897Z,1016.45
2018-10-18T00:34:57.179Z,1016.45
2018-10-18T00:35:57.913Z,1016.40
2018-10-18T00:36:57.435Z,1016.42
2018-10-18T00:37:57.099Z,1016.43
2018-10-18T00:38:57.884Z,1016.43
2018-10-18T00:39:57.024Z,1016.44
2018-10-18T00:40:57.879Z,1016.42
2018-10-18T00:41:57.496Z,1016.41
2018-10-18T00:42:56.944Z,1016.42
2018-10-18T00:43:56.911Z,1016.39
2018-10-18T00:44:57.387Z,1016.41
2018-10-18T00:45:56.852Z,1016.40
2018-10-18T00:46:56.856Z,1016.40
2018-10-18T00:47:56.806Z,1016.36
2018-10-18T00:48:57.385Z,1016.37
2018-10-18T00:49:56.737Z,1016.38
2018-10-18T00:50:57.386Z,1016.36
2018-10-18T00:51:56.989Z,1016.41
2018-10-18T00:52:56.624Z,1016.36
2018-10-18T00:53:57.389Z,1016.39
2018-10-18T00:54:56.569Z,1016.37
2018-10-18T00:55:56.548Z,1016.39
2018-10-18T00:56:56.548Z,1016.37
2018-10-18T00:57:56.935Z,1016.34
2018-10-18T00:58:57.387Z,1016.39
2018-10-18T00:59:56.457Z,1016.36
2018-10-18T01:00:56.381Z,1016.36
2018-10-18T01:01:56.990Z,1016.35
2018-10-18T01:02:56.436Z,1016.35
2018-10-18T01:03:56.288Z,1016.35
2018-10-18T01:04:56.305Z,1016.34
2018-10-18T01:05:56.903Z,1016.31
2018-10-18T01:06:56.890Z,1016.30
2018-10-18T01:07:56.263Z,1016.30
2018-10-18T01:08:56.882Z,1016.31
2018-10-18T01:09:56.883Z,1016.38
2018-10-18T01:10:56.882Z,1016.37
2018-10-18T01:11:56.104Z,1016.40
2018-10-18T01:12:56.016Z,1016.32
2018-10-18T01:13:56.039Z,1016.35
2018-10-18T01:14:56.901Z,1016.32
2018-10-18T01:15:55.923Z,1016.31
2018-10-18T01:16:55.946Z,1016.29
2018-10-18T01:17:56.404Z,1016.25
2018-10-18T01:18:55.934Z,1016.26
2018-10-18T01:19:55.850Z,1016.21
2018-10-18T01:20:56.439Z,1016.20
2018-10-18T01:21:55.787Z,1016.17
2018-10-18T01:22:55.707Z,1016.19
2018-10-18T01:23:55.692Z,1016.20
2018-10-18T01:24:56.384Z,1016.15
2018-10-18T01:25:55.628Z,1016.17
2018-10-18T01:26:55.622Z,1016.17
2018-10-18T01:27:55.556Z,1016.20
2018-10-18T01:28:55.517Z,1016.19
2018-10-18T01:29:55.496Z,1016.18
2018-10-18T01:30:55.961Z,1016.18
2018-10-18T01:31:55.439Z,1016.20
2018-10-18T01:32:56.392Z,1016.18
2018-10-18T01:33:55.377Z,1016.18
2018-10-18T01:34:55.335Z,1016.16
2018-10-18T01:35:55.372Z,1016.17
2018-10-18T01:36:55.319Z,1016.17
2018-10-18T01:37:55.272Z,1016.11
2018-10-18T01:38:55.893Z,1016.12
2018-10-18T01:39:55.182Z,1016.10
2018-10-18T01:40:55.155Z,1016.12
2018-10-18T01:41:55.483Z,1016.17
2018-10-18T01:42:55.089Z,1016.17
2018-10-18T01:43:55.825Z,1016.11
2018-10-18T01:44:55.029Z,1016.10
2018-10-18T01:45:55.895Z,1016.15
2018-10-18T01:46:55.024Z,1016.11
2018-10-18T01:47:55.913Z,1016.13
2018-10-18T01:48:55.453Z,1016.12
2018-10-18T01:49:54.905Z,1016.14
2018-10-18T01:50:55.603Z,1016.12
2018-10-18T01:51:54.854Z,1016.11
2018-10-18T01:52:55.394Z,1016.09
2018-10-18T01:53:54.808Z,1016.12
2018-10-18T01:54:54.725Z,1016.09
2018-10-18T01:55:54.792Z,1016.06
2018-10-18T01:56:55.390Z,1016.09
2018-10-18T01:57:54.675Z,1016.11
2018-10-18T01:58:55.422Z,1016.12
2018-10-18T01:59:54.568Z,1016.09
2018-10-18T02:00:54.533Z,1016.09
2018-10-18T02:01:54.615Z,1016.08
2018-10-18T02:02:54.522Z,1016.10
2018-10-18T02:03:56.352Z,1016.09
2018-10-18T02:04:55.392Z,1016.07
2018-10-18T02:05:54.479Z,1016.12
2018-10-18T02:06:54.891Z,1016.17
2018-10-18T02:07:54.359Z,1016.13
2018-10-18T02:08:54.891Z,1016.17
2018-10-18T02:09:54.258Z,1016.16
2018-10-18T02:10:54.267Z,1016.13
2018-10-18T02:11:54.914Z,1016.14
2018-10-18T02:12:54.445Z,1016.13
2018-10-18T02:13:54.133Z,1016.12
2018-10-18T02:14:54.115Z,1016.14
2018-10-18T02:15:55.307Z,1016.14
2018-10-18T02:16:54.038Z,1016.11
2018-10-18T02:17:54.908Z,1016.11
2018-10-18T02:18:54.912Z,1016.07
2018-10-18T02:19:53.946Z,1016.11
2018-10-18T02:20:53.975Z,1016.07
2018-10-18T02:21:53.887Z,1016.10
2018-10-18T02:22:54.403Z,1016.10
2018-10-18T02:23:53.862Z,1016.10
2018-10-18T02:24:53.827Z,1016.08
2018-10-18T02:25:53.953Z,1016.11
2018-10-18T02:26:55.459Z,1016.14
2018-10-18T02:27:53.702Z,1016.14
2018-10-18T02:28:54.404Z,1016.14
2018-10-18T02:29:53.677Z,1016.14
2018-10-18T02:30:53.605Z,1016.17
2018-10-18T02:31:53.963Z,1016.17
2018-10-18T02:32:53.949Z,1016.15
2018-10-18T02:33:53.510Z,1016.17
2018-10-18T02:34:54.405Z,1016.17
2018-10-18T02:35:54.434Z,1016.15
2018-10-18T02:36:53.948Z,1016.18
2018-10-18T02:37:53.388Z,1016.19
2018-10-18T02:38:53.352Z,1016.19
2018-10-18T02:39:53.898Z,1016.21
2018-10-18T02:40:53.312Z,1016.21
2018-10-18T02:41:53.325Z,1016.20
2018-10-18T02:42:53.229Z,1016.21
2018-10-18T02:43:53.199Z,1016.21
2018-10-18T02:44:53.172Z,1016.23
2018-10-18T02:45:53.137Z,1016.23
2018-10-18T02:46:53.454Z,1016.22
2018-10-18T02:47:53.115Z,1016.20
2018-10-18T02:48:53.052Z,1016.22
2018-10-18T02:49:53.897Z,1016.21
2018-10-18T02:50:52.981Z,1016.20
2018-10-18T02:51:52.996Z,1016.21
2018-10-18T02:52:53.140Z,1016.15
2018-10-18T02:53:52.927Z,1016.15
2018-10-18T02:54:52.860Z,1016.16
2018-10-18T02:55:52.845Z,1016.14
2018-10-18T02:56:53.398Z,1016.17
2018-10-18T02:57:52.951Z,1016.17
2018-10-18T02:58:53.397Z,1016.18
2018-10-18T02:59:53.411Z,1016.21
2018-10-18T03:00:52.669Z,1016.19
2018-10-18T03:01:53.397Z,1016.23
2018-10-18T03:02:52.952Z,1016.22
2018-10-18T03:03:52.953Z,1016.25
2018-10-18T03:04:53.411Z,1016.20
2018-10-18T03:05:52.562Z,1016.23
2018-10-18T03:06:52.483Z,1016.22
2018-10-18T03:07:54.307Z,1016.18
2018-10-18T03:08:52.953Z,1016.23
2018-10-18T03:09:52.898Z,1016.23
2018-10-18T03:10:52.899Z,1016.24
2018-10-18T03:11:52.344Z,1016.25
2018-10-18T03:12:52.341Z,1016.22
2018-10-18T03:13:52.311Z,1016.25
2018-10-18T03:14:52.901Z,1016.25
2018-10-18T03:15:52.212Z,1016.24
2018-10-18T03:16:52.177Z,1016.19
2018-10-18T03:17:52.187Z,1016.17
2018-10-18T03:18:52.453Z,1016.20
2018-10-18T03:19:52.078Z,1016.18
2018-10-18T03:20:52.097Z,1016.17
2018-10-18T03:21:52.019Z,1016.19
2018-10-18T03:22:52.900Z,1016.19
2018-10-18T03:23:52.007Z,1016.18
2018-10-18T03:24:51.919Z,1016.20
2018-10-18T03:25:51.894Z,1016.22
2018-10-18T03:26:51.857Z,1016.20
2018-10-18T03:27:51.844Z,1016.17
2018-10-18T03:28:51.973Z,1016.21
2018-10-18T03:29:52.424Z,1016.20
2018-10-18T03:30:51.732Z,1016.17
2018-10-18T03:31:51.705Z,1016.19
2018-10-18T03:32:51.670Z,1016.17
2018-10-18T03:33:51.967Z,1016.24
2018-10-18T03:34:51.608Z,1016.18
2018-10-18T03:35:51.672Z,1016.18
2018-10-18T03:36:51.544Z,1016.19
2018-10-18T03:37:51.513Z,1016.18
2018-10-18T03:38:51.963Z,1016.18
2018-10-18T03:39:51.457Z,1016.16
2018-10-18T03:40:51.966Z,1016.14
2018-10-18T03:41:52.163Z,1016.12
2018-10-18T03:42:53.904Z,1016.13
2018-10-18T03:43:51.904Z,1016.14
2018-10-18T03:44:51.905Z,1016.18
2018-10-18T03:45:51.496Z,1016.15
2018-10-18T03:46:51.945Z,1016.14
2018-10-18T03:47:51.204Z,1016.19
2018-10-18T03:48:51.168Z,1016.20
2018-10-18T03:49:51.181Z,1016.15
2018-10-18T03:50:51.908Z,1016.11
2018-10-18T03:51:51.082Z,1016.17
2018-10-18T03:52:51.482Z,1016.12
2018-10-18T03:53:51.013Z,1016.18
2018-10-18T03:54:52.812Z,1016.19
2018-10-18T03:55:51.962Z,1016.15
2018-10-18T03:56:51.930Z,1016.17
2018-10-18T03:57:51.404Z,1016.18
2018-10-18T03:58:51.410Z,1016.18
2018-10-18T03:59:50.868Z,1016.22
2018-10-18T04:00:51.405Z,1016.24
2018-10-18T04:01:50.801Z,1016.23
2018-10-18T04:02:50.729Z,1016.18
2018-10-18T04:03:50.957Z,1016.21
2018-10-18T04:04:51.414Z,1016.24
2018-10-18T04:05:50.638Z,1016.22
2018-10-18T04:06:50.937Z,1016.20
2018-10-18T04:07:50.574Z,1016.24
2018-10-18T04:08:50.967Z,1016.20
2018-10-18T04:09:50.511Z,1016.19
2018-10-18T04:10:50.480Z,1016.21
2018-10-18T04:11:50.449Z,1016.21
2018-10-18T04:12:50.573Z,1016.22
2018-10-18T04:13:50.471Z,1016.22
2018-10-18T04:14:50.912Z,1016.19
2018-10-18T04:15:50.320Z,1016.22
2018-10-18T04:16:50.910Z,1016.20
2018-10-18T04:17:50.307Z,1016.19
2018-10-18T04:18:50.276Z,1016.20
2018-10-18T04:19:50.203Z,1016.16
2018-10-18T04:20:50.210Z,1016.24
2018-10-18T04:21:50.134Z,1016.23
2018-10-18T04:22:50.104Z,1016.22
2018-10-18T04:23:50.908Z,1016.25
2018-10-18T04:24:50.463Z,1016.26
2018-10-18T04:25:50.472Z,1016.22
2018-10-18T04:26:49.976Z,1016.21
2018-10-18T04:27:50.909Z,1016.24
2018-10-18T04:28:49.961Z,1016.23
2018-10-18T04:29:49.975Z,1016.24
2018-10-18T04:30:49.863Z,1016.26
2018-10-18T04:31:50.413Z,1016.23
2018-10-18T04:32:49.792Z,1016.23
2018-10-18T04:33:49.761Z,1016.21
2018-10-18T04:34:49.874Z,1016.25
2018-10-18T04:35:50.417Z,1016.26
2018-10-18T04:36:50.417Z,1016.23
2018-10-18T04:37:49.631Z,1016.17
2018-10-18T04:38:50.413Z,1016.23
2018-10-18T04:39:49.627Z,1016.20
2018-10-18T04:40:49.556Z,1016.24
2018-10-18T04:41:49.545Z,1016.23
2018-10-18T04:42:49.535Z,1016.25
2018-10-18T04:43:49.961Z,1016.25
2018-10-18T04:44:49.411Z,1016.29
2018-10-18T04:45:49.425Z,1016.28
2018-10-18T04:46:49.351Z,1016.30
2018-10-18T04:47:49.416Z,1016.31
2018-10-18T04:48:49.428Z,1016.33
2018-10-18T04:49:49.306Z,1016.36
2018-10-18T04:50:49.266Z,1016.35
2018-10-18T04:51:49.195Z,1016.36
2018-10-18T04:52:49.268Z,1016.39
2018-10-18T04:53:49.126Z,1016.40
2018-10-18T04:54:49.094Z,1016.41
2018-10-18T04:55:49.113Z,1016.37
2018-10-18T04:56:49.121Z,1016.39
2018-10-18T04:57:49.003Z,1016.44
2018-10-18T04:58:49.014Z,1016.39
2018-10-18T04:59:48.937Z,1016.46
2018-10-18T05:00:48.953Z,1016.47
2018-10-18T05:01:48.877Z,1016.46
2018-10-18T05:02:49.002Z,1016.47
2018-10-18T05:03:48.811Z,1016.48
2018-10-18T05:04:48.804Z,1016.46
2018-10-18T05:05:48.752Z,1016.46
2018-10-18T05:06:48.759Z,1016.45
2018-10-18T05:07:48.734Z,1016.48
2018-10-18T05:08:48.652Z,1016.48
2018-10-18T05:09:48.732Z,1016.51
2018-10-18T05:10:48.605Z,1016.47
2018-10-18T05:11:48.609Z,1016.48
2018-10-18T05:12:48.604Z,1016.48
2018-10-18T05:13:48.497Z,1016.53
2018-10-18T05:14:48.507Z,1016.52
2018-10-18T05:15:48.438Z,1016.53
2018-10-18T05:16:48.441Z,1016.57
2018-10-18T05:17:48.422Z,1016.54
2018-10-18T05:18:48.344Z,1016.58
2018-10-18T05:19:48.308Z,1016.56
2018-10-18T05:20:48.276Z,1016.57
2018-10-18T05:21:48.244Z,1016.60
2018-10-18T05:22:48.256Z,1016.63
2018-10-18T05:23:48.290Z,1016.58
2018-10-18T05:24:48.157Z,1016.60
2018-10-18T05:25:48.122Z,1016.55
2018-10-18T05:26:48.472Z,1016.57
2018-10-18T05:27:48.056Z,1016.57
2018-10-18T05:28:48.066Z,1016.61
2018-10-18T05:29:47.994Z,1016.61
2018-10-18T05:30:47.956Z,1016.68
2018-10-18T05:31:48.008Z,1016.70
2018-10-18T05:32:48.423Z,1016.69
2018-10-18T05:33:47.928Z,1016.71
2018-10-18T05:34:48.416Z,1016.69
2018-10-18T05:35:47.800Z,1016.69
2018-10-18T05:36:47.769Z,1016.71
2018-10-18T05:37:47.765Z,1016.73
2018-10-18T05:38:47.752Z,1016.73
2018-10-18T05:39:47.732Z,1016.75
2018-10-18T05:40:47.641Z,1016.75
2018-10-18T05:41:47.654Z,1016.78
2018-10-18T05:42:47.578Z,1016.73
2018-10-18T05:43:48.430Z,1016.77
2018-10-18T05:44:47.514Z,1016.80
2018-10-18T05:45:47.971Z,1016.81
2018-10-18T05:46:48.467Z,1016.83
2018-10-18T05:47:47.420Z,1016.84
2018-10-18T05:48:47.392Z,1016.79
2018-10-18T05:49:47.359Z,1016.85
2018-10-18T05:50:47.378Z,1016.92
2018-10-18T05:51:47.295Z,1016.92
2018-10-18T05:52:47.266Z,1016.97
2018-10-18T05:53:47.325Z,1016.98
2018-10-18T05:54:47.203Z,1016.95
2018-10-18T05:55:47.225Z,1016.99
2018-10-18T05:56:47.139Z,1016.96
2018-10-18T05:57:47.873Z,1017.02
2018-10-18T05:58:47.071Z,1017.04
2018-10-18T05:59:47.042Z,1017.02
2018-10-18T06:00:47.066Z,1017.02
2018-10-18T06:01:46.976Z,1017.02
2018-10-18T06:02:46.944Z,1017.04
2018-10-18T06:03:46.928Z,1017.05
2018-10-18T06:04:46.882Z,1017.05
2018-10-18T06:05:46.894Z,1017.05
2018-10-18T06:06:46.861Z,1017.07
2018-10-18T06:07:46.786Z,1017.05
2018-10-18T06:08:46.759Z,1017.04
2018-10-18T06:09:46.802Z,1017.09
2018-10-18T06:10:46.690Z,1017.04
2018-10-18T06:11:46.717Z,1017.06
2018-10-18T06:12:46.628Z,1017.08
2018-10-18T06:13:46.597Z,1017.07
2018-10-18T06:14:46.564Z,1017.07
2018-10-18T06:15:46.544Z,1017.08
2018-10-18T06:16:46.553Z,1017.09
2018-10-18T06:17:46.530Z,1017.08
2018-10-18T06:18:46.442Z,1017.06
2018-10-18T06:19:46.573Z,1017.07
2018-10-18T06:20:46.379Z,1017.09
2018-10-18T06:21:46.348Z,1017.09
2018-10-18T06:22:46.389Z,1017.12
2018-10-18T06:23:46.292Z,1017.14
2018-10-18T06:24:46.266Z,1017.17
2018-10-18T06:25:46.219Z,1017.12
2018-10-18T06:26:46.191Z,1017.15
2018-10-18T06:27:46.205Z,1017.15
2018-10-18T06:28:46.126Z,1017.14
2018-10-18T06:29:46.092Z,1017.12
2018-10-18T06:30:46.061Z,1017.17
2018-10-18T06:31:46.048Z,1017.15
2018-10-18T06:32:46.052Z,1017.16
2018-10-18T06:33:45.967Z,1017.15
2018-10-18T06:34:45.937Z,1017.18
2018-10-18T06:35:45.904Z,1017.21
2018-10-18T06:36:45.873Z,1017.25
2018-10-18T06:37:45.889Z,1017.23
2018-10-18T06:38:45.813Z,1017.23
2018-10-18T06:39:45.821Z,1017.27
2018-10-18T06:40:45.799Z,1017.26
2018-10-18T06:41:45.721Z,1017.29
2018-10-18T06:42:45.695Z,1017.29
2018-10-18T06:43:45.658Z,1017.35
2018-10-18T06:44:45.669Z,1017.37
2018-10-18T06:45:45.599Z,1017.35
2018-10-18T06:46:45.644Z,1017.39
2018-10-18T06:47:45.669Z,1017.37
2018-10-18T06:48:45.513Z,1017.37
2018-10-18T06:49:45.473Z,1017.36
2018-10-18T06:50:45.441Z,1017.40
2018-10-18T06:51:45.415Z,1017.38
2018-10-18T06:52:45.429Z,1017.36
2018-10-18T06:53:45.349Z,1017.42
2018-10-18T06:54:45.319Z,1017.42
2018-10-18T06:55:45.306Z,1017.43
2018-10-18T06:56:45.264Z,1017.40
2018-10-18T06:57:45.279Z,1017.43
2018-10-18T06:58:45.216Z,1017.40
2018-10-18T06:59:46.135Z,1017.41
2018-10-18T07:00:45.937Z,1017.43
2018-10-18T07:01:45.110Z,1017.42
2018-10-18T07:02:45.135Z,1017.42
2018-10-18T07:03:45.042Z,1017.42
2018-10-18T07:04:45.014Z,1017.41
2018-10-18T07:05:44.981Z,1017.41
2018-10-18T07:06:45.933Z,1017.45
2018-10-18T07:07:44.968Z,1017.39
2018-10-18T07:08:44.915Z,1017.40
2018-10-18T07:09:44.866Z,1017.40
2018-10-18T07:10:44.843Z,1017.45
2018-10-18T07:11:45.428Z,1017.46
2018-10-18T07:12:44.811Z,1017.43
2018-10-18T07:13:44.744Z,1017.46
2018-10-18T07:14:44.708Z,1017.46
2018-10-18T07:15:44.721Z,1017.49
2018-10-18T07:16:44.653Z,1017.48
2018-10-18T07:17:44.653Z,1017.48
2018-10-18T07:18:44.590Z,1017.49
2018-10-18T07:19:44.562Z,1017.46
2018-10-18T07:20:44.578Z,1017.48
2018-10-18T07:21:44.501Z,1017.45
2018-10-18T07:22:44.514Z,1017.53
2018-10-18T07:23:44.443Z,1017.52
2018-10-18T07:24:44.412Z,1017.54
2018-10-18T07:25:44.930Z,1017.56
2018-10-18T07:26:44.931Z,1017.54
2018-10-18T07:27:44.482Z,1017.57
2018-10-18T07:28:44.942Z,1017.58
2018-10-18T07:29:44.933Z,1017.56
2018-10-18T07:30:44.225Z,1017.56
2018-10-18T07:31:44.196Z,1017.54
2018-10-18T07:32:44.220Z,1017.58
2018-10-18T07:33:44.138Z,1017.57
2018-10-18T07:34:44.106Z,1017.59
2018-10-18T07:35:44.082Z,1017.62
2018-10-18T07:36:44.070Z,1017.60
2018-10-18T07:37:44.508Z,1017.60
2018-10-18T07:38:43.991Z,1017.65
2018-10-18T07:39:43.957Z,1017.62
2018-10-18T07:40:43.928Z,1017.65
2018-10-18T07:41:43.897Z,1017.66
2018-10-18T07:42:43.916Z,1017.64
2018-10-18T07:43:43.838Z,1017.65
2018-10-18T07:44:43.813Z,1017.65
2018-10-18T07:45:43.792Z,1017.71
2018-10-18T07:46:43.907Z,1017.70
2018-10-18T07:47:43.767Z,1017.74
2018-10-18T07:48:43.689Z,1017.70
2018-10-18T07:49:43.665Z,1017.73
2018-10-18T07:50:43.631Z,1017.70
2018-10-18T07:51:43.602Z,1017.71
2018-10-18T07:52:43.628Z,1017.71
2018-10-18T07:53:43.576Z,1017.72
2018-10-18T07:54:43.514Z,1017.70
2018-10-18T07:55:44.435Z,1017.72
2018-10-18T07:56:43.458Z,1017.68
2018-10-18T07:57:43.522Z,1017.69
2018-10-18T07:58:43.403Z,1017.76
2018-10-18T07:59:43.947Z,1017.75
2018-10-18T08:00:43.434Z,1017.76
2018-10-18T08:01:43.312Z,1017.73
2018-10-18T08:02:43.277Z,1017.74
2018-10-18T08:03:43.295Z,1017.74
2018-10-18T08:04:43.220Z,1017.79
2018-10-18T08:05:43.195Z,1017.80
2018-10-18T08:06:43.167Z,1017.82
2018-10-18T08:07:43.135Z,1017.81
2018-10-18T08:08:43.149Z,1017.73
2018-10-18T08:09:43.130Z,1017.78
2018-10-18T08:10:43.047Z,1017.75
2018-10-18T08:11:43.019Z,1017.75
2018-10-18T08:12:42.987Z,1017.74
2018-10-18T08:13:43.016Z,1017.70
2018-10-18T08:14:42.935Z,1017.76
2018-10-18T08:15:42.902Z,1017.72
2018-10-18T08:16:42.874Z,1017.77
2018-10-18T08:17:42.844Z,1017.78
2018-10-18T08:18:42.880Z,1017.80
2018-10-18T08:19:42.829Z,1017.78
2018-10-18T08:20:42.763Z,1017.84
2018-10-18T08:21:42.731Z,1017.80
2018-10-18T08:22:42.758Z,1017.84
2018-10-18T08:23:42.673Z,1017.81
2018-10-18T08:24:42.698Z,1017.84
2018-10-18T08:25:42.670Z,1017.83
2018-10-18T08:26:42.592Z,1017.83
2018-10-18T08:27:42.555Z,1017.83
2018-10-18T08:28:42.523Z,1017.81
2018-10-18T08:29:42.495Z,1017.73
2018-10-18T08:30:42.513Z,1017.76
2018-10-18T08:31:42.949Z,1017.76
2018-10-18T08:32:43.348Z,1017.76
2018-10-18T08:33:42.397Z,1017.75
2018-10-18T08:34:42.350Z,1017.74
2018-10-18T08:35:42.379Z,1017.78
2018-10-18T08:36:42.293Z,1017.80
2018-10-18T08:37:42.378Z,1017.77
2018-10-18T08:38:42.233Z,1017.77
2018-10-18T08:39:42.219Z,1017.81
2018-10-18T08:40:42.229Z,1017.78
2018-10-18T08:41:42.193Z,1017.77
2018-10-18T08:42:42.128Z,1017.79
2018-10-18T08:43:42.126Z,1017.81
2018-10-18T08:44:42.063Z,1017.78
2018-10-18T08:45:42.038Z,1017.79
2018-10-18T08:46:42.064Z,1017.81
2018-10-18T08:47:41.977Z,1017.82
2018-10-18T08:48:41.951Z,1017.81
2018-10-18T08:49:41.977Z,1017.80
2018-10-18T08:50:41.897Z,1017.79
2018-10-18T08:51:42.006Z,1017.76
2018-10-18T08:52:42.445Z,1017.74
2018-10-18T08:53:41.805Z,1017.78
2018-10-18T08:54:42.445Z,1017.76
2018-10-18T08:55:41.749Z,1017.73
2018-10-18T08:56:41.779Z,1017.73
2018-10-18T08:57:41.691Z,1017.75
2018-10-18T08:58:41.663Z,1017.78
2018-10-18T08:59:42.447Z,1017.77
2018-10-18T09:00:41.608Z,1017.78
2018-10-18T09:01:42.001Z,1017.87
2018-10-18T09:02:41.603Z,1017.88
2018-10-18T09:03:41.574Z,1017.86
2018-10-18T09:04:41.495Z,1017.90
2018-10-18T09:05:41.503Z,1017.92
2018-10-18T09:06:41.437Z,1017.93
2018-10-18T09:07:41.960Z,1017.92
2018-10-18T09:08:41.426Z,1017.98
2018-10-18T09:09:41.361Z,1017.98
2018-10-18T09:10:41.323Z,1017.99
2018-10-18T09:11:41.296Z,1017.96
2018-10-18T09:12:41.320Z,1018.01
2018-10-18T09:13:41.354Z,1018.05
2018-10-18T09:14:41.212Z,1017.99
2018-10-18T09:15:41.195Z,1018.00
2018-10-18T09:16:41.156Z,1018.06
2018-10-18T09:17:41.133Z,1018.12
2018-10-18T09:18:41.141Z,1018.07
2018-10-18T09:19:41.069Z,1018.08
2018-10-18T09:20:41.049Z,1018.16
2018-10-18T09:21:41.030Z,1018.07
2018-10-18T09:22:40.988Z,1018.06
2018-10-18T09:23:41.093Z,1018.12
2018-10-18T09:24:41.957Z,1018.06
2018-10-18T09:25:40.920Z,1018.03
2018-10-18T09:26:40.874Z,1017.97
2018-10-18T09:27:40.848Z,1017.94
2018-10-18T09:28:40.860Z,1017.95
2018-10-18T09:29:40.837Z,1017.95
2018-10-18T09:30:40.764Z,1018.00
2018-10-18T09:31:40.737Z,1018.05
2018-10-18T09:32:40.707Z,1018.09
2018-10-18T09:33:40.678Z,1018.12
2018-10-18T09:34:40.687Z,1018.10
2018-10-18T09:35:40.618Z,1018.10
2018-10-18T09:36:40.589Z,1018.14
2018-10-18T09:37:40.571Z,1018.20
2018-10-18T09:38:40.538Z,1018.24
2018-10-18T09:39:41.019Z,1018.26
2018-10-18T09:40:41.451Z,1018.28
2018-10-18T09:41:40.454Z,1018.27
2018-10-18T09:42:40.477Z,1018.30
2018-10-18T09:43:40.397Z,1018.31
2018-10-18T09:44:40.440Z,1018.34
2018-10-18T09:45:40.955Z,1018.39
2018-10-18T09:46:40.310Z,1018.38
2018-10-18T09:47:40.331Z,1018.41
2018-10-18T09:48:40.257Z,1018.40
2018-10-18T09:49:40.228Z,1018.38
2018-10-18T09:50:40.249Z,1018.37
2018-10-18T09:51:40.173Z,1018.34
2018-10-18T09:52:40.150Z,1018.42
2018-10-18T09:53:40.122Z,1018.43
2018-10-18T09:54:40.090Z,1018.42
2018-10-18T09:55:40.212Z,1018.44
2018-10-18T09:56:40.037Z,1018.44
2018-10-18T09:57:40.010Z,1018.55
2018-10-18T09:58:39.980Z,1018.51
2018-10-18T09:59:39.962Z,1018.47
2018-10-18T10:00:39.968Z,1018.50
2018-10-18T10:01:39.899Z,1018.44
2018-10-18T10:02:39.887Z,1018.45
2018-10-18T10:03:39.840Z,1018.44
2018-10-18T10:04:39.813Z,1018.46
2018-10-18T10:05:39.834Z,1018.47
2018-10-18T10:06:39.758Z,1018.50
2018-10-18T10:07:39.730Z,1018.43
2018-10-18T10:08:39.716Z,1018.47
2018-10-18T10:09:39.675Z,1018.50
2018-10-18T10:10:39.689Z,1018.52
2018-10-18T10:11:39.714Z,1018.48
2018-10-18T10:12:39.592Z,1018.51
2018-10-18T10:13:39.590Z,1018.46
2018-10-18T10:14:39.550Z,1018.45
2018-10-18T10:15:39.565Z,1018.50
2018-10-18T10:16:39.485Z,1018.50
2018-10-18T10:17:39.574Z,1018.45
2018-10-18T10:18:39.425Z,1018.45
2018-10-18T10:19:39.400Z,1018.48
2018-10-18T10:20:39.525Z,1018.50
2018-10-18T10:21:39.385Z,1018.46
2018-10-18T10:22:39.318Z,1018.53
2018-10-18T10:23:39.290Z,1018.49
2018-10-18T10:24:39.292Z,1018.52
2018-10-18T10:25:39.234Z,1018.51
2018-10-18T10:26:39.248Z,1018.52
2018-10-18T10:27:39.231Z,1018.50
2018-10-18T10:28:39.150Z,1018.52
2018-10-18T10:29:39.124Z,1018.54
2018-10-18T10:30:39.097Z,1018.59
2018-10-18T10:31:39.068Z,1018.57
2018-10-18T10:32:39.090Z,1018.51
2018-10-18T10:33:39.016Z,1018.53
2018-10-18T10:34:38.985Z,1018.52
2018-10-18T10:35:39.043Z,1018.54
2018-10-18T10:36:39.037Z,1018.53
2018-10-18T10:37:38.902Z,1018.56
2018-10-18T10:38:38.947Z,1018.55
2018-10-18T10:39:38.846Z,1018.57
2018-10-18T10:40:38.821Z,1018.54
2018-10-18T10:41:38.854Z,1018.57
2018-10-18T10:42:38.767Z,1018.56
2018-10-18T10:43:38.739Z,1018.59
2018-10-18T10:44:38.724Z,1018.55
2018-10-18T10:45:38.758Z,1018.60
2018-10-18T10:46:38.725Z,1018.57
2018-10-18T10:47:38.674Z,1018.61
2018-10-18T10:48:38.639Z,1018.60
2018-10-18T10:49:38.573Z,1018.60
2018-10-18T10:50:38.561Z,1018.60
2018-10-18T10:51:38.518Z,1018.58
2018-10-18T10:52:38.545Z,1018.62
2018-10-18T10:53:38.464Z,1018.60
2018-10-18T10:54:38.438Z,1018.58
2018-10-18T10:55:38.417Z,1018.61
2018-10-18T10:56:38.380Z,1018.64
2018-10-18T10:57:38.407Z,1018.59
2018-10-18T10:58:38.327Z,1018.61
2018-10-18T10:59:38.298Z,1018.68
2018-10-18T11:00:38.310Z,1018.62
2018-10-18T11:01:38.973Z,1018.66
2018-10-18T11:02:38.542Z,1018.59
2018-10-18T11:03:38.189Z,1018.58
2018-10-18T11:04:38.983Z,1018.53
2018-10-18T11:05:38.135Z,1018.52
2018-10-18T11:06:38.106Z,1018.60
2018-10-18T11:07:38.120Z,1018.54
2018-10-18T11:08:38.059Z,1018.53
2018-10-18T11:09:38.090Z,1018.49
2018-10-18T11:10:38.017Z,1018.49
2018-10-18T11:11:37.968Z,1018.49
2018-10-18T11:12:37.983Z,1018.51
2018-10-18T11:13:37.916Z,1018.43
2018-10-18T11:14:37.886Z,1018.42
2018-10-18T11:15:37.903Z,1018.41
2018-10-18T11:16:37.840Z,1018.46
2018-10-18T11:17:37.803Z,1018.42
2018-10-18T11:18:37.773Z,1018.44
2018-10-18T11:19:37.757Z,1018.42
2018-10-18T11:20:37.770Z,1018.43
2018-10-18T11:21:37.801Z,1018.42
2018-10-18T11:22:37.680Z,1018.45
2018-10-18T11:23:37.641Z,1018.45
2018-10-18T11:24:37.688Z,1018.51
2018-10-18T11:25:37.588Z,1018.50
2018-10-18T11:26:37.560Z,1018.48
2018-10-18T11:27:37.530Z,1018.52
2018-10-18T11:28:37.541Z,1018.48
2018-10-18T11:29:37.527Z,1018.49
2018-10-18T11:30:37.447Z,1018.52
2018-10-18T11:31:37.429Z,1018.47
2018-10-18T11:32:37.394Z,1018.48
2018-10-18T11:33:37.369Z,1018.48
2018-10-18T11:34:37.463Z,1018.47
2018-10-18T11:35:37.317Z,1018.49
2018-10-18T11:36:37.287Z,1018.53
2018-10-18T11:37:37.269Z,1018.53
2018-10-18T11:38:37.233Z,1018.54
2018-10-18T11:39:37.249Z,1018.59
2018-10-18T11:40:37.184Z,1018.57
2018-10-18T11:41:37.151Z,1018.53
2018-10-18T11:42:37.191Z,1018.45
2018-10-18T11:43:37.100Z,1018.46
2018-10-18T11:44:37.114Z,1018.42
2018-10-18T11:45:37.047Z,1018.41
2018-10-18T11:46:37.021Z,1018.40
2018-10-18T11:47:36.989Z,1018.38
2018-10-18T11:48:36.964Z,1018.30
2018-10-18T11:49:36.984Z,1018.34
2018-10-18T11:50:36.955Z,1018.28
2018-10-18T11:51:36.972Z,1018.29
2018-10-18T11:52:36.862Z,1018.29
2018-10-18T11:53:36.840Z,1018.30
2018-10-18T11:54:36.807Z,1018.27
2018-10-18T11:55:36.820Z,1018.29
2018-10-18T11:56:36.794Z,1018.30
2018-10-18T11:57:36.728Z,1018.26
2018-10-18T11:58:36.696Z,1018.22
2018-10-18T11:59:36.670Z,1018.18
2018-10-18T12:00:36.652Z,1018.22
2018-10-18T12:01:36.662Z,1018.16
2018-10-18T12:02:36.624Z,1018.12
2018-10-18T12:03:36.574Z,1018.15
2018-10-18T12:04:36.538Z,1018.10
2018-10-18T12:05:36.559Z,1018.12